createdAt,value
2023-03-12T00:00:22.495Z,6.20
2023-03-12T00:02:24.378Z,6.87
2023-03-12T00:04:31.288Z,5.70
2023-03-12T00:06:33.036Z,6.90
2023-03-12T00:08:36.000Z,8.33
2023-03-12T00:10:39.869Z,7.13
2023-03-12T00:12:41.518Z,8.57
2023-03-12T00:14:46.082Z,9.20
2023-03-12T00:16:47.547Z,7.03
2023-03-12T00:18:51.166Z,8.40
2023-03-12T00:20:54.323Z,7.90
2023-03-12T00:22:55.794Z,7.40
2023-03-12T00:24:57.556Z,7.63
2023-03-12T00:26:59.099Z,10.13
2023-03-12T00:29:03.336Z,8.67
2023-03-12T00:31:14.715Z,7.80
2023-03-12T00:33:16.416Z,9.30
2023-03-12T00:35:18.218Z,8.60
2023-03-12T00:37:20.950Z,9.10
2023-03-12T00:39:22.473Z,7.43
2023-03-12T00:41:24.962Z,7.20
2023-03-12T00:43:26.490Z,9.73
2023-03-12T00:45:28.238Z,9.53
2023-03-12T00:47:29.693Z,8.97
2023-03-12T00:49:31.382Z,8.70
2023-03-12T00:51:34.024Z,8.40
2023-03-12T00:53:36.192Z,9.27
2023-03-12T00:55:37.689Z,9.23
2023-03-12T00:57:39.168Z,8.70
2023-03-12T00:59:40.974Z,10.73
2023-03-12T01:01:43.396Z,7.90
2023-03-12T01:03:45.673Z,10.53
2023-03-12T01:05:54.136Z,10.27
2023-03-12T01:07:55.820Z,9.37
2023-03-12T01:09:57.465Z,13.43
2023-03-12T01:11:59.129Z,9.47
2023-03-12T01:14:04.334Z,11.20
2023-03-12T01:16:06.599Z,10.23
2023-03-12T01:18:08.659Z,8.97
2023-03-12T01:20:13.896Z,8.80
2023-03-12T01:22:15.407Z,10.33
2023-03-12T01:24:16.956Z,10.53
2023-03-12T01:26:19.479Z,9.80
2023-03-12T01:28:22.755Z,10.37
2023-03-12T01:30:25.672Z,9.70
2023-03-12T01:32:27.258Z,9.97
2023-03-12T01:34:33.408Z,11.87
2023-03-12T01:36:34.980Z,9.93
2023-03-12T01:38:36.457Z,11.10
2023-03-12T01:40:38.563Z,11.30
2023-03-12T01:42:43.335Z,10.67
2023-03-12T01:44:57.160Z,11.87
2023-03-12T01:47:01.692Z,9.47
2023-03-12T01:49:14.343Z,10.90
2023-03-12T01:51:18.911Z,9.87
2023-03-12T01:53:20.667Z,9.00
2023-03-12T01:55:22.699Z,7.63
2023-03-12T01:57:31.131Z,7.00
2023-03-12T01:59:38.787Z,7.97
2023-03-12T02:01:41.809Z,7.73
2023-03-12T02:03:49.160Z,8.00
2023-03-12T02:06:03.093Z,8.87
2023-03-12T02:08:10.775Z,9.70
2023-03-12T02:10:13.692Z,9.57
2023-03-12T02:12:17.287Z,8.67
2023-03-12T02:14:19.384Z,6.57
2023-03-12T02:16:21.407Z,8.10
2023-03-12T02:18:23.645Z,8.63
2023-03-12T02:20:32.154Z,8.70
2023-03-12T02:22:38.625Z,7.10
2023-03-12T02:24:51.264Z,9.07
2023-03-12T02:26:55.349Z,8.07
2023-03-12T02:28:59.694Z,9.57
2023-03-12T02:31:03.642Z,7.10
2023-03-12T02:33:08.362Z,7.90
2023-03-12T02:35:10.308Z,7.63
2023-03-12T02:37:11.832Z,7.47
2023-03-12T02:39:13.561Z,7.53
2023-03-12T02:41:18.059Z,9.53
2023-03-12T02:43:22.697Z,8.67
2023-03-12T02:45:25.848Z,6.80
2023-03-12T02:47:27.497Z,8.93
2023-03-12T02:49:31.930Z,6.70
2023-03-12T02:51:34.644Z,7.30
2023-03-12T02:53:36.559Z,7.73
2023-03-12T02:55:39.286Z,8.17
2023-03-12T02:57:43.937Z,5.83
2023-03-12T02:59:47.847Z,6.70
2023-03-12T03:01:57.148Z,7.17
2023-03-12T03:03:58.704Z,6.53
2023-03-12T03:06:01.463Z,7.93
2023-03-12T03:08:04.252Z,7.57
2023-03-12T03:10:06.613Z,6.73
2023-03-12T03:12:08.561Z,6.93
2023-03-12T03:14:11.487Z,5.43
2023-03-12T03:16:14.985Z,8.53
2023-03-12T03:18:16.590Z,7.57
2023-03-12T03:20:18.692Z,6.60
2023-03-12T03:22:21.550Z,5.80
2023-03-12T03:24:23.330Z,7.13
2023-03-12T03:26:25.180Z,7.70
2023-03-12T03:28:29.170Z,6.53
2023-03-12T03:30:33.024Z,6.73
2023-03-12T03:32:34.552Z,4.83
2023-03-12T03:34:36.448Z,5.13
2023-03-12T03:36:37.974Z,6.57
2023-03-12T03:38:49.127Z,5.67
2023-03-12T03:40:51.530Z,6.20
2023-03-12T03:42:53.096Z,5.53
2023-03-12T03:44:56.931Z,4.87
2023-03-12T03:46:59.008Z,7.07
2023-03-12T03:49:01.265Z,6.23
2023-03-12T03:51:06.759Z,5.97
2023-03-12T03:53:10.637Z,6.63
2023-03-12T03:55:12.110Z,6.17
2023-03-12T03:57:14.726Z,5.13
2023-03-12T03:59:18.206Z,5.63
2023-03-12T04:01:21.498Z,7.87
2023-03-12T04:03:24.334Z,7.03
2023-03-12T04:05:30.839Z,6.13
2023-03-12T04:07:35.642Z,6.43
2023-03-12T04:09:40.590Z,6.43
2023-03-12T04:11:42.653Z,6.97
2023-03-12T04:13:48.853Z,6.50
2023-03-12T04:15:54.074Z,4.90
2023-03-12T04:17:55.957Z,6.00
2023-03-12T04:19:58.165Z,6.77
2023-03-12T04:22:00.360Z,8.00
2023-03-12T04:24:01.889Z,6.13
2023-03-12T04:26:10.188Z,6.03
2023-03-12T04:28:13.469Z,5.77
2023-03-12T04:30:15.224Z,7.20
2023-03-12T04:32:16.960Z,6.43
2023-03-12T04:34:18.703Z,7.17
2023-03-12T04:36:23.763Z,8.53
2023-03-12T04:38:30.157Z,8.63
2023-03-12T04:40:32.707Z,8.80
2023-03-12T04:42:35.491Z,7.30
2023-03-12T04:44:37.487Z,7.37
2023-03-12T04:46:39.529Z,7.23
2023-03-12T04:48:43.441Z,8.40
2023-03-12T04:50:45.290Z,6.47
2023-03-12T04:52:47.779Z,6.77
2023-03-12T04:54:49.422Z,6.93
2023-03-12T04:56:54.076Z,6.50
2023-03-12T04:58:57.304Z,6.40
2023-03-12T05:00:58.795Z,7.37
2023-03-12T05:03:00.459Z,7.90
2023-03-12T05:05:02.298Z,7.13
2023-03-12T05:07:04.311Z,7.27
2023-03-12T05:09:05.855Z,7.80
2023-03-12T05:11:07.814Z,6.53
2023-03-12T05:13:18.223Z,8.10
2023-03-12T05:15:20.785Z,8.37
2023-03-12T05:17:22.570Z,7.57
2023-03-12T05:19:24.396Z,6.83
2023-03-12T05:21:26.030Z,6.17
2023-03-12T05:23:30.127Z,7.37
2023-03-12T05:25:39.571Z,7.47
2023-03-12T05:27:41.608Z,5.87
2023-03-12T05:29:44.132Z,6.93
2023-03-12T05:31:46.051Z,6.33
2023-03-12T05:33:48.580Z,6.67
2023-03-12T05:35:51.573Z,6.47
2023-03-12T05:37:55.988Z,6.50
2023-03-12T05:39:57.591Z,7.10
2023-03-12T05:41:59.619Z,8.43
2023-03-12T05:44:01.272Z,7.17
2023-03-12T05:46:05.032Z,7.57
2023-03-12T05:48:08.609Z,8.63
2023-03-12T05:50:11.775Z,9.97
2023-03-12T05:52:14.641Z,6.90
2023-03-12T05:54:21.062Z,6.37
2023-03-12T05:56:32.510Z,7.30
2023-03-12T05:58:35.324Z,7.97
2023-03-12T06:00:38.180Z,7.30
2023-03-12T06:02:41.456Z,7.53
2023-03-12T06:04:44.935Z,6.83
2023-03-12T06:06:47.038Z,5.73
2023-03-12T06:08:49.885Z,9.67
2023-03-12T06:10:54.754Z,5.70
2023-03-12T06:12:59.146Z,7.40
2023-03-12T06:15:00.598Z,8.30
2023-03-12T06:17:02.807Z,8.03
2023-03-12T06:19:05.004Z,8.23
2023-03-12T06:21:11.943Z,8.33
2023-03-12T06:23:14.377Z,8.77
2023-03-12T06:25:18.819Z,6.93
2023-03-12T06:27:20.560Z,8.13
2023-03-12T06:29:22.195Z,8.10
2023-03-12T06:31:26.566Z,5.57
2023-03-12T06:33:28.543Z,8.10
2023-03-12T06:35:30.416Z,7.73
2023-03-12T06:37:32.072Z,5.70
2023-03-12T06:39:33.635Z,5.83
2023-03-12T06:41:35.698Z,8.57
2023-03-12T06:43:41.656Z,6.77
2023-03-12T06:45:43.132Z,7.07
2023-03-12T06:47:44.736Z,6.57
2023-03-12T06:49:46.297Z,6.30
2023-03-12T06:51:47.946Z,7.47
2023-03-12T06:53:51.808Z,6.97
2023-03-12T06:55:53.284Z,6.20
2023-03-12T06:57:55.002Z,5.67
2023-03-12T06:59:56.507Z,5.73
2023-03-12T07:01:58.062Z,5.20
2023-03-12T07:03:59.635Z,5.93
2023-03-12T07:06:01.626Z,7.60
2023-03-12T07:08:03.294Z,6.33
2023-03-12T07:10:06.596Z,5.63
2023-03-12T07:12:08.778Z,6.27
2023-03-12T07:14:10.433Z,6.40
2023-03-12T07:16:12.140Z,6.57
2023-03-12T07:18:14.048Z,6.73
2023-03-12T07:20:15.853Z,5.83
2023-03-12T07:22:17.845Z,3.83
2023-03-12T07:24:19.434Z,5.90
2023-03-12T07:26:22.126Z,4.63
2023-03-12T07:28:23.981Z,5.13
2023-03-12T07:30:25.616Z,5.43
2023-03-12T07:32:27.592Z,5.57
2023-03-12T07:34:29.429Z,5.37
2023-03-12T07:36:31.148Z,5.57
2023-03-12T07:38:32.881Z,5.67
2023-03-12T07:40:35.790Z,4.77
2023-03-12T07:42:37.305Z,3.77
2023-03-12T07:44:39.159Z,4.63
2023-03-12T07:46:40.694Z,7.10
2023-03-12T07:48:44.294Z,4.13
2023-03-12T07:50:48.772Z,4.67
2023-03-12T07:52:52.804Z,4.53
2023-03-12T07:54:56.516Z,5.07
2023-03-12T07:56:58.079Z,4.80
2023-03-12T07:58:59.693Z,3.93
2023-03-12T08:01:01.257Z,6.37
2023-03-12T08:03:02.943Z,5.03
2023-03-12T08:05:05.273Z,5.83
2023-03-12T08:07:09.139Z,4.50
2023-03-12T08:09:11.273Z,5.25
2023-03-12T08:11:12.887Z,4.40
2023-03-12T08:13:14.378Z,5.97
2023-03-12T08:15:16.367Z,3.80
2023-03-12T08:17:18.282Z,4.53
2023-03-12T08:19:19.734Z,4.80
2023-03-12T08:21:21.291Z,5.80
2023-03-12T08:23:24.145Z,4.50
2023-03-12T08:25:26.001Z,3.97
2023-03-12T08:27:27.604Z,4.30
2023-03-12T08:29:30.367Z,4.03
2023-03-12T08:31:32.150Z,5.63
2023-03-12T08:33:33.700Z,4.75
2023-03-12T08:35:35.331Z,3.83
2023-03-12T08:37:36.822Z,5.43
2023-03-12T08:39:38.627Z,6.15
2023-03-12T08:41:40.113Z,6.57
2023-03-12T08:43:41.763Z,5.07
2023-03-12T08:45:43.294Z,5.03
2023-03-12T08:47:45.943Z,5.25
2023-03-12T08:49:47.647Z,6.20
2023-03-12T08:51:51.720Z,7.95
2023-03-12T08:53:53.342Z,5.18
2023-03-12T08:55:55.620Z,5.60
2023-03-12T08:57:57.931Z,4.38
2023-03-12T08:59:59.441Z,4.85
2023-03-12T09:02:01.421Z,5.32
2023-03-12T09:04:04.381Z,5.90
2023-03-12T09:06:13.075Z,5.10
2023-03-12T09:08:15.634Z,4.40
2023-03-12T09:10:17.715Z,5.35
2023-03-12T09:12:19.334Z,3.88
2023-03-12T09:16:42.379Z,4.13
2023-03-12T09:18:43.893Z,4.50
2023-03-12T09:20:47.990Z,4.78
2023-03-12T09:22:49.826Z,4.03
2023-03-12T09:24:51.524Z,5.18
2023-03-12T09:26:53.344Z,3.95
2023-03-12T09:28:55.294Z,4.22
2023-03-12T09:30:56.916Z,5.60
2023-03-12T09:32:58.655Z,4.15
2023-03-12T09:35:00.267Z,4.05
2023-03-12T09:37:01.783Z,4.05
2023-03-12T09:39:03.698Z,4.05
2023-03-12T09:41:15.137Z,3.00
2023-03-12T09:43:50.615Z,4.10
2023-03-12T09:45:53.658Z,3.50
2023-03-12T09:48:01.377Z,3.55
2023-03-12T09:50:07.996Z,5.88
2023-03-12T09:52:24.499Z,5.18
2023-03-12T09:54:36.756Z,5.68
2023-03-12T09:56:38.983Z,2.95
2023-03-12T09:58:42.459Z,4.35
2023-03-12T10:00:45.820Z,3.47
2023-03-12T10:03:12.786Z,4.13
2023-03-12T10:05:53.070Z,5.00
2023-03-12T10:08:25.071Z,4.60
2023-03-12T10:10:46.158Z,3.28
2023-03-12T10:13:13.644Z,5.30
2023-03-12T10:15:36.839Z,4.20
2023-03-12T10:18:16.187Z,4.50
2023-03-12T10:20:42.134Z,3.72
2023-03-12T10:23:17.527Z,4.38
2023-03-12T10:25:46.414Z,4.20
2023-03-12T10:27:48.553Z,4.68
2023-03-12T10:29:52.927Z,4.43
2023-03-12T10:32:05.845Z,3.97
2023-03-12T10:34:47.031Z,3.35
2023-03-12T10:36:48.645Z,4.85
2023-03-12T10:38:50.117Z,3.25
2023-03-12T10:40:51.756Z,3.75
2023-03-12T10:42:54.034Z,5.15
2023-03-12T10:45:14.729Z,3.28
2023-03-12T10:47:40.462Z,3.58
2023-03-12T10:49:41.901Z,3.67
2023-03-12T10:51:57.145Z,3.30
2023-03-12T10:53:58.749Z,3.55
2023-03-12T10:56:05.983Z,3.53
2023-03-12T10:58:23.895Z,3.67
2023-03-12T11:00:28.083Z,3.53
2023-03-12T11:02:41.549Z,4.50
2023-03-12T11:04:52.855Z,3.72
2023-03-12T11:07:07.249Z,3.85
2023-03-12T11:09:19.460Z,5.63
2023-03-12T11:11:32.644Z,3.97
2023-03-12T11:13:37.955Z,4.65
2023-03-12T11:15:41.920Z,4.43
2023-03-12T11:17:43.416Z,3.28
2023-03-12T11:19:44.923Z,3.17
2023-03-12T11:22:01.780Z,4.10
2023-03-12T11:24:07.083Z,3.40
2023-03-12T11:26:16.877Z,4.50
2023-03-12T11:28:23.686Z,5.57
2023-03-12T11:30:45.867Z,4.68
2023-03-12T11:32:49.308Z,4.88
2023-03-12T11:34:55.784Z,3.22
2023-03-12T11:37:17.112Z,4.28
2023-03-12T11:39:45.528Z,4.32
2023-03-12T11:41:58.624Z,5.57
2023-03-12T11:44:12.055Z,3.22
2023-03-12T11:46:32.773Z,5.40
2023-03-12T11:49:02.196Z,6.05
2023-03-12T11:51:25.230Z,4.13
2023-03-12T11:54:04.369Z,4.75
2023-03-12T11:56:29.057Z,4.60
2023-03-12T11:58:45.500Z,4.50
2023-03-12T12:01:12.786Z,4.05
2023-03-12T12:03:45.654Z,3.75
2023-03-12T12:06:00.966Z,5.88
2023-03-12T12:08:48.019Z,3.85
2023-03-12T12:11:19.323Z,2.97
2023-03-12T12:13:41.914Z,4.57
2023-03-12T12:15:50.745Z,4.03
2023-03-12T12:18:04.360Z,3.65
2023-03-12T12:20:21.696Z,4.00
2023-03-12T12:22:26.047Z,4.10
2023-03-12T12:24:37.567Z,5.47
2023-03-12T12:26:59.594Z,4.63
2023-03-12T12:29:36.990Z,3.63
2023-03-12T12:31:58.601Z,4.57
2023-03-12T12:34:17.977Z,3.08
2023-03-12T12:36:19.488Z,3.17
2023-03-12T12:38:34.320Z,4.30
2023-03-12T12:40:44.070Z,3.25
2023-03-12T12:42:51.820Z,5.47
2023-03-12T12:44:57.648Z,5.53
2023-03-12T12:47:05.611Z,2.88
2023-03-12T12:49:14.647Z,2.97
2023-03-12T12:51:19.759Z,4.22
2023-03-12T12:53:31.798Z,3.33
2023-03-12T12:55:50.421Z,3.55
2023-03-12T12:58:01.858Z,4.57
2023-03-12T13:00:22.684Z,4.65
2023-03-12T13:02:28.765Z,4.38
2023-03-12T13:04:39.394Z,3.83
2023-03-12T13:07:13.404Z,4.47
2023-03-12T13:09:20.582Z,4.45
2023-03-12T13:11:31.496Z,4.07
2023-03-12T13:13:35.661Z,4.30
2023-03-12T13:15:43.669Z,3.35
2023-03-12T13:17:51.086Z,3.33
2023-03-12T13:20:17.237Z,3.95
2023-03-12T13:22:39.246Z,2.90
2023-03-12T13:25:05.281Z,3.80
2023-03-12T13:27:19.808Z,6.00
2023-03-12T13:29:29.188Z,4.72
2023-03-12T13:31:30.885Z,3.80
2023-03-12T13:33:45.176Z,3.67
2023-03-12T13:36:17.488Z,2.90
2023-03-12T13:38:36.396Z,4.03
2023-03-12T13:40:51.897Z,4.20
2023-03-12T13:43:02.291Z,3.65
2023-03-12T13:45:27.762Z,2.35
2023-03-12T13:47:32.298Z,2.85
2023-03-12T13:49:45.769Z,4.00
2023-03-12T13:51:57.203Z,5.47
2023-03-12T13:54:03.734Z,5.65
2023-03-12T13:56:11.646Z,4.55
2023-03-12T13:58:21.314Z,5.85
2023-03-12T14:00:36.193Z,5.10
2023-03-12T14:02:45.269Z,3.88
2023-03-12T14:04:46.973Z,4.40
2023-03-12T14:07:09.815Z,3.08
2023-03-12T14:09:45.325Z,3.42
2023-03-12T14:12:08.720Z,4.97
2023-03-12T14:14:20.667Z,3.70
2023-03-12T14:16:41.292Z,4.82
2023-03-12T14:18:45.855Z,4.03
2023-03-12T14:20:58.072Z,3.28
2023-03-12T14:23:06.054Z,4.28
2023-03-12T14:25:42.251Z,3.15
2023-03-12T14:27:47.469Z,3.15
2023-03-12T14:30:12.690Z,3.45
2023-03-12T14:32:18.894Z,3.33
2023-03-12T14:34:30.661Z,2.70
2023-03-12T14:36:41.360Z,2.80
2023-03-12T14:38:46.057Z,3.53
2023-03-12T14:41:06.278Z,4.57
2023-03-12T14:43:21.150Z,3.70
2023-03-12T14:45:23.458Z,5.22
2023-03-12T14:47:25.347Z,4.35
2023-03-12T14:49:31.070Z,3.33
2023-03-12T14:51:36.099Z,3.70
2023-03-12T14:53:41.240Z,3.00
2023-03-12T14:55:42.713Z,3.92
2023-03-12T14:57:45.054Z,3.28
2023-03-12T14:59:53.786Z,3.17
2023-03-12T15:02:15.649Z,3.10
2023-03-12T15:04:21.551Z,2.10
2023-03-12T15:06:30.504Z,2.08
2023-03-12T15:08:41.121Z,2.80
2023-03-12T15:10:49.654Z,2.47
2023-03-12T15:12:55.371Z,1.92
2023-03-12T15:15:05.543Z,2.55
2023-03-12T15:17:16.506Z,2.42
2023-03-12T15:19:23.274Z,1.67
2023-03-12T15:21:38.393Z,2.28
2023-03-12T15:23:44.561Z,2.65
2023-03-12T15:25:46.214Z,2.05
2023-03-12T15:27:47.809Z,2.40
2023-03-12T15:29:49.476Z,2.80
2023-03-12T15:31:51.259Z,3.03
2023-03-12T15:34:02.368Z,3.08
2023-03-12T15:36:21.699Z,3.25
2023-03-12T15:38:24.259Z,2.10
2023-03-12T15:40:28.357Z,3.15
2023-03-12T15:42:38.673Z,3.58
2023-03-12T15:44:58.863Z,4.00
2023-03-12T15:47:10.238Z,2.88
2023-03-12T15:49:22.294Z,2.75
2023-03-12T15:51:30.700Z,3.20
2023-03-12T15:53:34.468Z,3.88
2023-03-12T15:55:36.364Z,3.53
2023-03-12T15:58:42.559Z,3.17
2023-03-12T16:00:45.482Z,3.50
2023-03-12T16:02:49.234Z,3.35
2023-03-12T16:04:51.433Z,3.55
2023-03-12T16:06:53.526Z,3.88
2023-03-12T16:09:01.198Z,2.70
2023-03-12T16:11:03.191Z,3.22
2023-03-12T16:13:05.829Z,4.20
2023-03-12T16:15:09.497Z,3.53
2023-03-12T16:17:14.217Z,3.75
2023-03-12T16:19:18.614Z,3.58
2023-03-12T16:21:20.514Z,3.85
2023-03-12T16:23:22.063Z,2.90
2023-03-12T16:25:26.403Z,3.63
2023-03-12T16:27:32.752Z,3.60
2023-03-12T16:29:38.092Z,4.05
2023-03-12T16:31:42.393Z,3.00
2023-03-12T16:33:44.837Z,4.32
2023-03-12T16:35:47.088Z,2.92
2023-03-12T16:37:49.121Z,2.85
2023-03-12T16:39:50.662Z,4.05
2023-03-12T16:41:52.232Z,3.22
2023-03-12T16:43:54.827Z,2.95
2023-03-12T16:45:58.053Z,3.50
2023-03-12T16:48:03.254Z,3.20
2023-03-12T16:50:22.796Z,3.83
2023-03-12T16:52:28.993Z,4.78
2023-03-12T16:54:30.978Z,3.75
2023-03-12T16:56:32.618Z,5.13
2023-03-12T16:58:34.256Z,4.15
2023-03-12T17:00:40.738Z,3.78
2023-03-12T17:02:47.148Z,6.28
2023-03-12T17:04:48.929Z,3.42
2023-03-12T17:06:50.568Z,3.20
2023-03-12T17:08:56.466Z,4.38
2023-03-12T17:10:59.849Z,3.42
2023-03-12T17:13:01.690Z,5.10
2023-03-12T17:15:07.850Z,5.55
2023-03-12T17:17:09.766Z,4.97
2023-03-12T17:19:14.001Z,3.15
2023-03-12T17:21:19.077Z,5.72
2023-03-12T17:23:20.531Z,4.78
2023-03-12T17:25:28.815Z,2.63
2023-03-12T17:27:30.896Z,3.88
2023-03-12T17:29:32.743Z,5.22
2023-03-12T17:31:35.539Z,4.03
2023-03-12T17:33:38.210Z,3.70
2023-03-12T17:35:40.333Z,4.57
2023-03-12T17:37:41.912Z,2.63
2023-03-12T17:39:43.366Z,4.05
2023-03-12T17:41:45.270Z,4.30
2023-03-12T17:43:46.840Z,3.53
2023-03-12T17:45:49.275Z,4.22
2023-03-12T17:47:50.861Z,5.03
2023-03-12T17:49:52.341Z,4.53
2023-03-12T17:51:53.992Z,7.55
2023-03-12T17:53:55.547Z,5.97
2023-03-12T17:55:57.177Z,5.55
2023-03-12T17:57:58.882Z,4.55
2023-03-12T18:00:00.509Z,4.43
2023-03-12T18:02:02.117Z,5.38
2023-03-12T18:04:03.654Z,6.40
2023-03-12T18:06:05.502Z,5.95
2023-03-12T18:08:08.478Z,6.45
2023-03-12T18:10:11.203Z,6.93
2023-03-12T18:12:13.333Z,6.07
2023-03-12T18:14:16.431Z,6.97
2023-03-12T18:16:23.891Z,5.40
2023-03-12T18:18:26.897Z,6.90
2023-03-12T18:20:38.518Z,6.38
2023-03-12T18:22:43.145Z,5.43
2023-03-12T18:24:45.246Z,4.90
2023-03-12T18:26:49.369Z,5.35
2023-03-12T18:28:51.010Z,6.68
2023-03-12T18:30:53.832Z,6.88
2023-03-12T18:32:55.546Z,5.78
2023-03-12T18:34:57.748Z,6.20
2023-03-12T18:36:59.396Z,5.10
2023-03-12T18:39:04.532Z,6.10
2023-03-12T18:41:08.734Z,6.50
2023-03-12T18:43:12.682Z,4.93
2023-03-12T18:45:15.607Z,6.15
2023-03-12T18:47:19.189Z,6.63
2023-03-12T18:49:25.085Z,6.80
2023-03-12T18:51:26.969Z,6.85
2023-03-12T18:53:28.965Z,7.10
2023-03-12T18:55:30.801Z,10.40
2023-03-12T18:57:34.605Z,9.55
2023-03-12T18:59:36.257Z,8.70
2023-03-12T19:01:37.975Z,9.02
2023-03-12T19:03:44.476Z,7.25
2023-03-12T19:05:46.378Z,7.65
2023-03-12T19:07:48.118Z,8.60
2023-03-12T19:09:52.467Z,7.50
2023-03-12T19:11:53.982Z,6.47
2023-03-12T19:13:55.717Z,6.25
2023-03-12T19:16:02.304Z,6.72
2023-03-12T19:18:04.021Z,7.40
2023-03-12T19:20:07.281Z,7.07
2023-03-12T19:22:09.601Z,9.98
2023-03-12T19:24:11.334Z,8.23
2023-03-12T19:26:15.787Z,10.55
2023-03-12T19:28:17.737Z,8.15
2023-03-12T19:30:19.583Z,10.23
2023-03-12T19:32:25.318Z,10.48
2023-03-12T19:34:29.383Z,7.35
2023-03-12T19:36:31.049Z,6.50
2023-03-12T19:38:32.605Z,8.85
2023-03-12T19:40:34.946Z,6.90
2023-03-12T19:42:36.684Z,9.43
2023-03-12T19:44:40.242Z,6.10
2023-03-12T19:46:46.853Z,7.13
2023-03-12T19:48:48.516Z,7.60
2023-03-12T19:50:52.395Z,6.00
2023-03-12T19:52:53.928Z,6.13
2023-03-12T19:55:04.191Z,6.03
2023-03-12T19:57:06.655Z,5.80
2023-03-12T19:59:08.296Z,6.07
2023-03-12T20:01:09.858Z,6.03
2023-03-12T20:03:18.431Z,6.55
2023-03-12T20:05:20.056Z,5.97
2023-03-12T20:07:24.626Z,6.03
2023-03-12T20:09:30.769Z,8.63
2023-03-12T20:11:39.709Z,6.30
2023-03-12T20:13:41.532Z,7.28
2023-03-12T20:15:49.154Z,6.57
2023-03-12T20:18:02.005Z,6.13
2023-03-12T20:20:06.298Z,8.27
2023-03-12T20:22:08.431Z,7.72
2023-03-12T20:24:11.282Z,5.18
2023-03-12T20:26:14.710Z,4.78
2023-03-12T20:28:21.665Z,6.55
2023-03-12T20:30:23.779Z,6.93
2023-03-12T20:32:25.636Z,5.40
2023-03-12T20:34:28.250Z,6.45
2023-03-12T20:36:29.924Z,7.72
2023-03-12T20:38:32.584Z,7.68
2023-03-12T20:40:34.374Z,5.40
2023-03-12T20:42:35.940Z,7.38
2023-03-12T20:44:37.522Z,7.82
2023-03-12T20:46:39.140Z,4.78
2023-03-12T20:48:40.684Z,7.55
2023-03-12T20:50:44.814Z,6.32
2023-03-12T20:52:46.250Z,7.82
2023-03-12T20:54:50.560Z,4.68
2023-03-12T20:56:52.258Z,5.88
2023-03-12T20:58:53.971Z,5.78
2023-03-12T21:00:55.713Z,7.80
2023-03-12T21:02:57.413Z,5.55
2023-03-12T21:05:01.669Z,8.63
2023-03-12T21:07:03.252Z,6.88
2023-03-12T21:09:04.968Z,6.32
2023-03-12T21:11:07.258Z,6.78
2023-03-12T21:13:17.882Z,6.43
2023-03-12T21:15:19.922Z,8.15
2023-03-12T21:17:21.444Z,6.65
2023-03-12T21:19:23.299Z,10.88
2023-03-12T21:21:24.944Z,9.70
2023-03-12T21:23:26.497Z,8.18
2023-03-12T21:25:28.082Z,6.32
2023-03-12T21:27:35.841Z,6.43
2023-03-12T21:29:46.088Z,6.75
2023-03-12T21:31:50.184Z,6.20
2023-03-12T21:33:54.293Z,6.05
2023-03-12T21:35:55.835Z,7.88
2023-03-12T21:37:57.393Z,7.93
2023-03-12T21:40:01.700Z,8.75
2023-03-12T21:42:03.815Z,8.52
2023-03-12T21:44:05.738Z,6.38
2023-03-12T21:46:12.902Z,7.18
2023-03-12T21:48:14.565Z,6.07
2023-03-12T21:50:16.158Z,6.10
2023-03-12T21:52:17.621Z,7.07
2023-03-12T21:54:19.240Z,6.60
2023-03-12T21:56:28.039Z,5.60
2023-03-12T21:58:31.242Z,9.13
2023-03-12T22:00:32.731Z,5.22
2023-03-12T22:02:34.294Z,6.90
2023-03-12T22:04:35.885Z,8.25
2023-03-12T22:06:37.478Z,7.72
2023-03-12T22:08:43.337Z,6.18
2023-03-12T22:10:45.254Z,5.93
2023-03-12T22:12:46.867Z,4.70
2023-03-12T22:14:48.617Z,7.10
2023-03-12T22:16:50.603Z,6.20
2023-03-12T22:18:52.168Z,4.65
2023-03-12T22:20:57.605Z,6.55
2023-03-12T22:23:04.850Z,6.78
2023-03-12T22:25:06.748Z,5.70
2023-03-12T22:27:08.458Z,4.70
2023-03-12T22:29:09.947Z,7.70
2023-03-12T22:31:11.467Z,8.77
2023-03-12T22:33:13.964Z,4.43
2023-03-12T22:35:15.446Z,6.65
2023-03-12T22:37:17.306Z,4.88
2023-03-12T22:39:19.945Z,4.28
2023-03-12T22:41:26.749Z,7.20
2023-03-12T22:43:28.558Z,3.80
2023-03-12T22:45:30.131Z,6.28
2023-03-12T22:47:32.806Z,6.90
2023-03-12T22:49:34.460Z,6.15
2023-03-12T22:51:36.047Z,4.70
2023-03-12T22:53:37.502Z,6.05
2023-03-12T22:55:42.104Z,5.03
2023-03-12T22:57:43.627Z,5.53
2023-03-12T22:59:47.216Z,4.90
2023-03-12T23:01:51.153Z,7.53
2023-03-12T23:03:53.054Z,5.93
2023-03-12T23:05:54.957Z,4.32
2023-03-12T23:07:56.511Z,4.85
2023-03-12T23:09:58.268Z,3.50
2023-03-12T23:11:59.878Z,4.13
2023-03-12T23:14:01.539Z,5.07
2023-03-12T23:16:14.296Z,5.32
2023-03-12T23:18:16.728Z,5.95
2023-03-12T23:20:23.429Z,6.22
2023-03-12T23:22:32.573Z,5.43
2023-03-12T23:24:34.404Z,3.90
2023-03-12T23:26:36.032Z,5.68
2023-03-12T23:28:37.654Z,6.20
2023-03-12T23:30:39.229Z,7.35
2023-03-12T23:32:41.106Z,4.38
2023-03-12T23:34:42.802Z,4.93
2023-03-12T23:36:45.994Z,5.38
2023-03-12T23:38:48.802Z,5.00
2023-03-12T23:40:50.237Z,4.63
2023-03-12T23:42:51.829Z,5.43
2023-03-12T23:44:53.462Z,4.55
2023-03-12T23:46:55.026Z,5.70
2023-03-12T23:48:57.166Z,6.05
2023-03-12T23:51:19.431Z,5.32
2023-03-12T23:53:23.434Z,9.05
2023-03-12T23:55:24.933Z,3.95
2023-03-12T23:57:26.838Z,4.20
2023-03-12T23:59:28.269Z,4.72
